sensor_id;sensor_type;location;lat;lon;timestamp;P1;durP1;ratioP1;P2;durP2;ratioP2
40012;SDS011;37387;42.672;23.334;2022-09-13T00:00:26;4.3;;;2.6;;
40012;SDS011;37387;42.672;23.334;2022-09-13T00:01:26;4.0;;;2.9;;
40012;SDS011;37387;42.672;23.334;2022-09-13T00:02:26;4.0;;;3.0;;
40012;SDS011;37387;42.672;23.334;2022-09-13T00:03:27;3.7;;;2.8;;
40012;SDS011;37387;42.672;23.334;2022-09-13T00:04:26;3.7;;;3.2;;
40012;SDS011;37387;42.672;23.334;2022-09-13T00:05:26;4.3;;;3.1;;
40012;SDS011;37387;42.672;23.334;2022-09-13T00:06:26;5.3;;;3.4;;
40012;SDS011;37387;42.672;23.334;2022-09-13T00:07:26;4.0;;;2.9;;
40012;SDS011;37387;42.672;23.334;2022-09-13T00:08:26;4.0;;;3.2;;
40012;SDS011;37387;42.672;23.334;2022-09-13T00:09:26;3.9;;;2.9;;
40012;SDS011;37387;42.672;23.334;2022-09-13T00:10:26;4.1;;;2.8;;
40012;SDS011;37387;42.672;23.334;2022-09-13T00:11:27;3.4;;;3.0;;
40012;SDS011;37387;42.672;23.334;2022-09-13T00:12:26;3.2;;;2.8;;
40012;SDS011;37387;42.672;23.334;2022-09-13T00:14:26;4.1;;;3.4;;
40012;SDS011;37387;42.672;23.334;2022-09-13T00:15:26;4.2;;;3.1;;
40012;SDS011;37387;42.672;23.334;2022-09-13T00:16:27;4.2;;;2.7;;
40012;SDS011;37387;42.672;23.334;2022-09-13T00:17:26;4.6;;;2.9;;
40012;SDS011;37387;42.672;23.334;2022-09-13T00:18:26;3.5;;;2.6;;
40012;SDS011;37387;42.672;23.334;2022-09-13T00:19:26;3.9;;;3.0;;
40012;SDS011;37387;42.672;23.334;2022-09-13T00:21:27;4.9;;;2.7;;
40012;SDS011;37387;42.672;23.334;2022-09-13T00:22:27;3.3;;;2.8;;
40012;SDS011;37387;42.672;23.334;2022-09-13T00:23:27;4.0;;;2.9;;
40012;SDS011;37387;42.672;23.334;2022-09-13T00:25:27;5.4;;;2.8;;
40012;SDS011;37387;42.672;23.334;2022-09-13T00:26:27;5.1;;;3.0;;
40012;SDS011;37387;42.672;23.334;2022-09-13T00:27:27;5.1;;;2.7;;
40012;SDS011;37387;42.672;23.334;2022-09-13T00:28:27;3.4;;;2.5;;
40012;SDS011;37387;42.672;23.334;2022-09-13T00:29:27;4.8;;;3.2;;
40012;SDS011;37387;42.672;23.334;2022-09-13T00:30:27;4.8;;;3.3;;
40012;SDS011;37387;42.672;23.334;2022-09-13T00:31:27;4.6;;;3.0;;
40012;SDS011;37387;42.672;23.334;2022-09-13T00:32:27;4.6;;;3.1;;
40012;SDS011;37387;42.672;23.334;2022-09-13T00:33:27;5.0;;;3.2;;
40012;SDS011;37387;42.672;23.334;2022-09-13T00:34:27;3.5;;;2.7;;
40012;SDS011;37387;42.672;23.334;2022-09-13T00:35:27;4.7;;;2.8;;
40012;SDS011;37387;42.672;23.334;2022-09-13T00:36:27;4.7;;;3.0;;
40012;SDS011;37387;42.672;23.334;2022-09-13T00:37:27;3.7;;;2.7;;
40012;SDS011;37387;42.672;23.334;2022-09-13T00:38:27;4.0;;;2.9;;
40012;SDS011;37387;42.672;23.334;2022-09-13T00:39:27;4.2;;;2.7;;
40012;SDS011;37387;42.672;23.334;2022-09-13T00:40:27;4.2;;;3.0;;
40012;SDS011;37387;42.672;23.334;2022-09-13T00:41:27;5.0;;;2.7;;
40012;SDS011;37387;42.672;23.334;2022-09-13T00:42:27;3.2;;;2.5;;
40012;SDS011;37387;42.672;23.334;2022-09-13T00:46:30;6.6;;;3.1;;
40012;SDS011;37387;42.672;23.334;2022-09-13T00:47:29;3.6;;;2.7;;
40012;SDS011;37387;42.672;23.334;2022-09-13T00:48:27;3.6;;;2.9;;
40012;SDS011;37387;42.672;23.334;2022-09-13T00:49:28;3.4;;;2.6;;
40012;SDS011;37387;42.672;23.334;2022-09-13T00:51:27;3.8;;;2.8;;
40012;SDS011;37387;42.672;23.334;2022-09-13T00:52:27;4.3;;;2.9;;
40012;SDS011;37387;42.672;23.334;2022-09-13T00:53:27;4.3;;;2.6;;
40012;SDS011;37387;42.672;23.334;2022-09-13T00:55:28;4.7;;;2.9;;
40012;SDS011;37387;42.672;23.334;2022-09-13T00:56:28;5.1;;;3.3;;
40012;SDS011;37387;42.672;23.334;2022-09-13T00:57:27;5.1;;;2.8;;
40012;SDS011;37387;42.672;23.334;2022-09-13T00:59:28;3.0;;;2.4;;
40012;SDS011;37387;42.672;23.334;2022-09-13T01:00:27;4.6;;;2.7;;
40012;SDS011;37387;42.672;23.334;2022-09-13T01:02:27;3.6;;;2.8;;
40012;SDS011;37387;42.672;23.334;2022-09-13T01:04:27;4.8;;;3.2;;
40012;SDS011;37387;42.672;23.334;2022-09-13T01:05:29;5.0;;;3.0;;
40012;SDS011;37387;42.672;23.334;2022-09-13T01:06:28;5.0;;;2.9;;
40012;SDS011;37387;42.672;23.334;2022-09-13T01:07:27;5.3;;;3.2;;
40012;SDS011;37387;42.672;23.334;2022-09-13T01:08:27;4.4;;;2.8;;
40012;SDS011;37387;42.672;23.334;2022-09-13T01:09:28;3.4;;;2.7;;
40012;SDS011;37387;42.672;23.334;2022-09-13T01:10:27;3.6;;;2.8;;
40012;SDS011;37387;42.672;23.334;2022-09-13T01:11:29;4.7;;;3.0;;
40012;SDS011;37387;42.672;23.334;2022-09-13T01:12:29;4.7;;;2.5;;
40012;SDS011;37387;42.672;23.334;2022-09-13T01:13:29;3.9;;;3.0;;
40012;SDS011;37387;42.672;23.334;2022-09-13T01:14:28;3.6;;;2.7;;
40012;SDS011;37387;42.672;23.334;2022-09-13T01:16:27;4.4;;;3.0;;
40012;SDS011;37387;42.672;23.334;2022-09-13T01:17:28;4.4;;;2.8;;
40012;SDS011;37387;42.672;23.334;2022-09-13T01:18:27;4.1;;;3.0;;
40012;SDS011;37387;42.672;23.334;2022-09-13T01:19:28;4.1;;;2.7;;
40012;SDS011;37387;42.672;23.334;2022-09-13T01:20:30;3.9;;;2.8;;
40012;SDS011;37387;42.672;23.334;2022-09-13T01:21:36;3.9;;;2.7;;
40012;SDS011;37387;42.672;23.334;2022-09-13T01:23:35;3.8;;;2.7;;
40012;SDS011;37387;42.672;23.334;2022-09-13T01:25:33;4.1;;;2.6;;
40012;SDS011;37387;42.672;23.334;2022-09-13T01:27:31;3.3;;;2.8;;
40012;SDS011;37387;42.672;23.334;2022-09-13T01:28:34;3.2;;;2.7;;
40012;SDS011;37387;42.672;23.334;2022-09-13T01:30:28;5.6;;;2.8;;
40012;SDS011;37387;42.672;23.334;2022-09-13T01:31:29;4.3;;;2.6;;
40012;SDS011;37387;42.672;23.334;2022-09-13T01:32:29;4.3;;;2.7;;
40012;SDS011;37387;42.672;23.334;2022-09-13T01:33:32;4.6;;;2.6;;
40012;SDS011;37387;42.672;23.334;2022-09-13T01:34:30;4.6;;;2.9;;
40012;SDS011;37387;42.672;23.334;2022-09-13T01:35:31;5.6;;;2.4;;
40012;SDS011;37387;42.672;23.334;2022-09-13T01:36:32;5.6;;;2.6;;
40012;SDS011;37387;42.672;23.334;2022-09-13T01:37:32;5.0;;;2.8;;
40012;SDS011;37387;42.672;23.334;2022-09-13T01:38:33;5.0;;;2.9;;
40012;SDS011;37387;42.672;23.334;2022-09-13T01:39:32;3.1;;;2.3;;
40012;SDS011;37387;42.672;23.334;2022-09-13T01:40:33;5.3;;;3.0;;
40012;SDS011;37387;42.672;23.334;2022-09-13T01:41:39;3.8;;;2.7;;
40012;SDS011;37387;42.672;23.334;2022-09-13T01:42:30;4.2;;;2.8;;
40012;SDS011;37387;42.672;23.334;2022-09-13T01:43:30;4.2;;;2.9;;
40012;SDS011;37387;42.672;23.334;2022-09-13T01:44:30;4.4;;;2.6;;
40012;SDS011;37387;42.672;23.334;2022-09-13T01:45:30;3.6;;;2.4;;
40012;SDS011;37387;42.672;23.334;2022-09-13T01:46:29;3.1;;;2.5;;
40012;SDS011;37387;42.672;23.334;2022-09-13T01:47:28;3.1;;;2.7;;
40012;SDS011;37387;42.672;23.334;2022-09-13T01:48:31;4.1;;;2.5;;
40012;SDS011;37387;42.672;23.334;2022-09-13T01:49:29;3.2;;;2.8;;
40012;SDS011;37387;42.672;23.334;2022-09-13T01:51:30;3.4;;;2.6;;
40012;SDS011;37387;42.672;23.334;2022-09-13T01:53:32;4.1;;;2.7;;
40012;SDS011;37387;42.672;23.334;2022-09-13T01:54:29;3.9;;;2.5;;
40012;SDS011;37387;42.672;23.334;2022-09-13T01:55:29;3.7;;;2.6;;
40012;SDS011;37387;42.672;23.334;2022-09-13T01:56:30;3.7;;;2.8;;
40012;SDS011;37387;42.672;23.334;2022-09-13T01:57:29;5.1;;;3.2;;
40012;SDS011;37387;42.672;23.334;2022-09-13T01:58:28;3.6;;;2.6;;
40012;SDS011;37387;42.672;23.334;2022-09-13T01:59:33;4.1;;;2.7;;
40012;SDS011;37387;42.672;23.334;2022-09-13T02:01:29;3.7;;;7.9;;
40012;SDS011;37387;42.672;23.334;2022-09-13T02:02:28;9.2;;;5.5;;
40012;SDS011;37387;42.672;23.334;2022-09-13T02:03:29;3.8;;;3.1;;
40012;SDS011;37387;42.672;23.334;2022-09-13T02:05:30;4.2;;;2.4;;
40012;SDS011;37387;42.672;23.334;2022-09-13T02:06:29;3.5;;;2.7;;
40012;SDS011;37387;42.672;23.334;2022-09-13T02:07:29;3.7;;;2.9;;
40012;SDS011;37387;42.672;23.334;2022-09-13T02:08:31;3.3;;;2.7;;
40012;SDS011;37387;42.672;23.334;2022-09-13T02:10:28;3.3;;;2.9;;
40012;SDS011;37387;42.672;23.334;2022-09-13T02:11:28;3.8;;;2.7;;
40012;SDS011;37387;42.672;23.334;2022-09-13T02:12:29;5.1;;;2.9;;
40012;SDS011;37387;42.672;23.334;2022-09-13T02:14:30;4.8;;;2.8;;
40012;SDS011;37387;42.672;23.334;2022-09-13T02:15:28;4.8;;;2.5;;
40012;SDS011;37387;42.672;23.334;2022-09-13T02:16:30;4.8;;;2.9;;
40012;SDS011;37387;42.672;23.334;2022-09-13T02:17:29;4.8;;;3.1;;
40012;SDS011;37387;42.672;23.334;2022-09-13T02:18:28;5.0;;;2.7;;
40012;SDS011;37387;42.672;23.334;2022-09-13T02:19:31;3.9;;;2.9;;
40012;SDS011;37387;42.672;23.334;2022-09-13T02:20:29;4.8;;;2.8;;
40012;SDS011;37387;42.672;23.334;2022-09-13T02:22:29;3.4;;;2.6;;
40012;SDS011;37387;42.672;23.334;2022-09-13T02:23:31;3.7;;;2.8;;
40012;SDS011;37387;42.672;23.334;2022-09-13T02:26:28;3.9;;;2.5;;
40012;SDS011;37387;42.672;23.334;2022-09-13T02:27:29;3.4;;;3.0;;
40012;SDS011;37387;42.672;23.334;2022-09-13T02:28:29;5.3;;;2.6;;
40012;SDS011;37387;42.672;23.334;2022-09-13T02:29:28;3.3;;;2.8;;
40012;SDS011;37387;42.672;23.334;2022-09-13T02:30:29;4.3;;;2.9;;
40012;SDS011;37387;42.672;23.334;2022-09-13T02:31:29;4.3;;;2.6;;
40012;SDS011;37387;42.672;23.334;2022-09-13T02:32:29;4.1;;;2.9;;
40012;SDS011;37387;42.672;23.334;2022-09-13T02:33:29;4.4;;;2.7;;
40012;SDS011;37387;42.672;23.334;2022-09-13T02:34:30;4.3;;;2.6;;
40012;SDS011;37387;42.672;23.334;2022-09-13T02:35:30;4.1;;;3.0;;
40012;SDS011;37387;42.672;23.334;2022-09-13T02:36:29;4.1;;;3.4;;
40012;SDS011;37387;42.672;23.334;2022-09-13T02:37:28;4.4;;;2.9;;
40012;SDS011;37387;42.672;23.334;2022-09-13T02:38:30;5.2;;;3.0;;
40012;SDS011;37387;42.672;23.334;2022-09-13T02:40:30;4.3;;;2.7;;
40012;SDS011;37387;42.672;23.334;2022-09-13T02:41:29;4.8;;;3.3;;
40012;SDS011;37387;42.672;23.334;2022-09-13T02:42:29;3.3;;;2.8;;
40012;SDS011;37387;42.672;23.334;2022-09-13T02:43:30;5.6;;;2.9;;
40012;SDS011;37387;42.672;23.334;2022-09-13T02:44:30;5.6;;;3.1;;
40012;SDS011;37387;42.672;23.334;2022-09-13T02:45:29;5.0;;;3.0;;
40012;SDS011;37387;42.672;23.334;2022-09-13T02:47:32;5.0;;;3.1;;
40012;SDS011;37387;42.672;23.334;2022-09-13T02:48:28;3.9;;;2.9;;
40012;SDS011;37387;42.672;23.334;2022-09-13T02:49:28;3.9;;;3.4;;
40012;SDS011;37387;42.672;23.334;2022-09-13T02:51:29;4.3;;;3.1;;
40012;SDS011;37387;42.672;23.334;2022-09-13T02:52:29;4.9;;;3.4;;
40012;SDS011;37387;42.672;23.334;2022-09-13T02:53:29;4.9;;;3.2;;
40012;SDS011;37387;42.672;23.334;2022-09-13T02:54:29;3.9;;;3.0;;
40012;SDS011;37387;42.672;23.334;2022-09-13T02:55:29;4.6;;;2.9;;
40012;SDS011;37387;42.672;23.334;2022-09-13T02:56:30;4.8;;;2.8;;
40012;SDS011;37387;42.672;23.334;2022-09-13T02:57:29;4.6;;;3.1;;
40012;SDS011;37387;42.672;23.334;2022-09-13T02:59:28;6.1;;;2.8;;
40012;SDS011;37387;42.672;23.334;2022-09-13T03:00:28;16.3;;;8.8;;
40012;SDS011;37387;42.672;23.334;2022-09-13T03:01:28;8.7;;;6.2;;
40012;SDS011;37387;42.672;23.334;2022-09-13T03:02:30;12.9;;;9.2;;
40012;SDS011;37387;42.672;23.334;2022-09-13T03:03:28;12.9;;;6.0;;
40012;SDS011;37387;42.672;23.334;2022-09-13T03:04:28;10.7;;;3.6;;
40012;SDS011;37387;42.672;23.334;2022-09-13T03:05:28;5.3;;;3.1;;
40012;SDS011;37387;42.672;23.334;2022-09-13T03:06:28;4.5;;;2.9;;
40012;SDS011;37387;42.672;23.334;2022-09-13T03:07:28;4.0;;;3.0;;
40012;SDS011;37387;42.672;23.334;2022-09-13T03:08:28;4.2;;;3.2;;
40012;SDS011;37387;42.672;23.334;2022-09-13T03:09:28;3.6;;;3.1;;
40012;SDS011;37387;42.672;23.334;2022-09-13T03:10:29;3.7;;;3.0;;
40012;SDS011;37387;42.672;23.334;2022-09-13T03:11:30;5.9;;;3.3;;
40012;SDS011;37387;42.672;23.334;2022-09-13T03:12:32;4.7;;;2.9;;
40012;SDS011;37387;42.672;23.334;2022-09-13T03:13:33;4.2;;;3.2;;
40012;SDS011;37387;42.672;23.334;2022-09-13T03:14:32;3.9;;;2.9;;
40012;SDS011;37387;42.672;23.334;2022-09-13T03:16:32;4.0;;;3.0;;
40012;SDS011;37387;42.672;23.334;2022-09-13T03:17:31;7.3;;;2.7;;
40012;SDS011;37387;42.672;23.334;2022-09-13T03:18:32;3.8;;;3.2;;
40012;SDS011;37387;42.672;23.334;2022-09-13T03:19:33;3.3;;;3.0;;
40012;SDS011;37387;42.672;23.334;2022-09-13T03:20:30;4.1;;;3.2;;
40012;SDS011;37387;42.672;23.334;2022-09-13T03:22:34;4.5;;;2.9;;
40012;SDS011;37387;42.672;23.334;2022-09-13T03:23:33;3.9;;;3.2;;
40012;SDS011;37387;42.672;23.334;2022-09-13T03:24:31;4.8;;;2.9;;
40012;SDS011;37387;42.672;23.334;2022-09-13T03:25:30;3.8;;;3.3;;
40012;SDS011;37387;42.672;23.334;2022-09-13T03:26:32;4.7;;;2.9;;
40012;SDS011;37387;42.672;23.334;2022-09-13T03:30:28;4.6;;;3.2;;
40012;SDS011;37387;42.672;23.334;2022-09-13T03:31:30;4.2;;;3.0;;
40012;SDS011;37387;42.672;23.334;2022-09-13T03:32:31;3.5;;;2.9;;
40012;SDS011;37387;42.672;23.334;2022-09-13T03:33:29;3.5;;;3.0;;
40012;SDS011;37387;42.672;23.334;2022-09-13T03:34:30;4.0;;;3.2;;
40012;SDS011;37387;42.672;23.334;2022-09-13T03:35:29;3.7;;;2.9;;
40012;SDS011;37387;42.672;23.334;2022-09-13T03:38:29;5.1;;;3.1;;
40012;SDS011;37387;42.672;23.334;2022-09-13T03:40:33;5.2;;;2.9;;
40012;SDS011;37387;42.672;23.334;2022-09-13T03:41:29;3.8;;;3.2;;
40012;SDS011;37387;42.672;23.334;2022-09-13T03:42:30;5.3;;;3.1;;
40012;SDS011;37387;42.672;23.334;2022-09-13T03:43:29;4.4;;;3.3;;
40012;SDS011;37387;42.672;23.334;2022-09-13T03:44:28;3.7;;;2.7;;
40012;SDS011;37387;42.672;23.334;2022-09-13T03:46:29;4.0;;;2.9;;
40012;SDS011;37387;42.672;23.334;2022-09-13T03:47:29;4.0;;;3.2;;
40012;SDS011;37387;42.672;23.334;2022-09-13T03:48:28;4.1;;;3.0;;
40012;SDS011;37387;42.672;23.334;2022-09-13T03:49:28;4.1;;;4.2;;
40012;SDS011;37387;42.672;23.334;2022-09-13T03:50:28;5.2;;;5.6;;
40012;SDS011;37387;42.672;23.334;2022-09-13T03:51:28;7.9;;;8.1;;
40012;SDS011;37387;42.672;23.334;2022-09-13T03:52:28;12.2;;;4.6;;
40012;SDS011;37387;42.672;23.334;2022-09-13T03:53:29;6.5;;;3.5;;
40012;SDS011;37387;42.672;23.334;2022-09-13T03:54:29;4.7;;;3.7;;
40012;SDS011;37387;42.672;23.334;2022-09-13T03:55:28;4.7;;;3.5;;
40012;SDS011;37387;42.672;23.334;2022-09-13T03:56:28;5.1;;;3.9;;
40012;SDS011;37387;42.672;23.334;2022-09-13T03:57:28;5.6;;;3.3;;
40012;SDS011;37387;42.672;23.334;2022-09-13T03:58:28;6.0;;;3.4;;
40012;SDS011;37387;42.672;23.334;2022-09-13T03:59:28;6.0;;;3.7;;
40012;SDS011;37387;42.672;23.334;2022-09-13T04:00:28;5.4;;;3.4;;
40012;SDS011;37387;42.672;23.334;2022-09-13T04:01:28;4.8;;;3.7;;
40012;SDS011;37387;42.672;23.334;2022-09-13T04:02:28;4.8;;;2.9;;
40012;SDS011;37387;42.672;23.334;2022-09-13T04:03:28;4.2;;;3.4;;
40012;SDS011;37387;42.672;23.334;2022-09-13T04:04:28;5.0;;;3.2;;
40012;SDS011;37387;42.672;23.334;2022-09-13T04:05:28;3.8;;;3.1;;
40012;SDS011;37387;42.672;23.334;2022-09-13T04:06:28;3.8;;;3.0;;
40012;SDS011;37387;42.672;23.334;2022-09-13T04:07:28;5.8;;;2.8;;
40012;SDS011;37387;42.672;23.334;2022-09-13T04:08:28;5.8;;;3.4;;
40012;SDS011;37387;42.672;23.334;2022-09-13T04:09:28;5.6;;;3.3;;
40012;SDS011;37387;42.672;23.334;2022-09-13T04:10:28;4.4;;;3.5;;
40012;SDS011;37387;42.672;23.334;2022-09-13T04:11:28;4.4;;;3.2;;
40012;SDS011;37387;42.672;23.334;2022-09-13T04:12:28;5.2;;;3.4;;
40012;SDS011;37387;42.672;23.334;2022-09-13T04:13:28;5.2;;;2.9;;
40012;SDS011;37387;42.672;23.334;2022-09-13T04:14:28;4.7;;;3.3;;
40012;SDS011;37387;42.672;23.334;2022-09-13T04:15:28;4.7;;;3.4;;
40012;SDS011;37387;42.672;23.334;2022-09-13T04:17:28;5.0;;;3.2;;
40012;SDS011;37387;42.672;23.334;2022-09-13T04:18:28;5.0;;;3.5;;
40012;SDS011;37387;42.672;23.334;2022-09-13T04:19:28;4.9;;;3.2;;
40012;SDS011;37387;42.672;23.334;2022-09-13T04:20:28;4.9;;;3.3;;
40012;SDS011;37387;42.672;23.334;2022-09-13T04:22:28;5.8;;;3.0;;
40012;SDS011;37387;42.672;23.334;2022-09-13T04:24:28;4.2;;;3.1;;
40012;SDS011;37387;42.672;23.334;2022-09-13T04:25:28;4.2;;;3.7;;
40012;SDS011;37387;42.672;23.334;2022-09-13T04:27:28;5.3;;;3.5;;
40012;SDS011;37387;42.672;23.334;2022-09-13T04:28:28;6.6;;;3.3;;
40012;SDS011;37387;42.672;23.334;2022-09-13T04:29:28;5.1;;;3.2;;
40012;SDS011;37387;42.672;23.334;2022-09-13T04:30:28;5.7;;;3.9;;
40012;SDS011;37387;42.672;23.334;2022-09-13T04:31:28;4.3;;;3.3;;
40012;SDS011;37387;42.672;23.334;2022-09-13T04:32:28;4.3;;;3.6;;
40012;SDS011;37387;42.672;23.334;2022-09-13T04:33:28;4.7;;;3.4;;
40012;SDS011;37387;42.672;23.334;2022-09-13T04:34:28;4.2;;;3.6;;
40012;SDS011;37387;42.672;23.334;2022-09-13T04:35:28;15.7;;;9.0;;
40012;SDS011;37387;42.672;23.334;2022-09-13T04:36:28;15.7;;;4.4;;
40012;SDS011;37387;42.672;23.334;2022-09-13T04:37:28;5.6;;;3.4;;
40012;SDS011;37387;42.672;23.334;2022-09-13T04:38:28;5.6;;;3.5;;
40012;SDS011;37387;42.672;23.334;2022-09-13T04:39:28;4.7;;;3.3;;
40012;SDS011;37387;42.672;23.334;2022-09-13T04:40:28;4.1;;;3.0;;
40012;SDS011;37387;42.672;23.334;2022-09-13T04:41:28;3.5;;;2.8;;
40012;SDS011;37387;42.672;23.334;2022-09-13T04:42:28;5.3;;;2.7;;
40012;SDS011;37387;42.672;23.334;2022-09-13T04:43:28;3.8;;;2.8;;
40012;SDS011;37387;42.672;23.334;2022-09-13T04:44:28;3.8;;;3.1;;
40012;SDS011;37387;42.672;23.334;2022-09-13T04:45:28;4.3;;;3.0;;
40012;SDS011;37387;42.672;23.334;2022-09-13T04:46:28;4.8;;;2.7;;
40012;SDS011;37387;42.672;23.334;2022-09-13T04:47:28;5.7;;;2.5;;
40012;SDS011;37387;42.672;23.334;2022-09-13T04:48:28;5.7;;;2.4;;
40012;SDS011;37387;42.672;23.334;2022-09-13T04:49:28;2.9;;;2.1;;
40012;SDS011;37387;42.672;23.334;2022-09-13T04:50:29;3.2;;;2.7;;
40012;SDS011;37387;42.672;23.334;2022-09-13T04:51:28;3.3;;;2.3;;
40012;SDS011;37387;42.672;23.334;2022-09-13T04:52:29;3.8;;;2.4;;
40012;SDS011;37387;42.672;23.334;2022-09-13T04:53:29;3.8;;;2.3;;
40012;SDS011;37387;42.672;23.334;2022-09-13T04:54:29;4.5;;;2.2;;
40012;SDS011;37387;42.672;23.334;2022-09-13T04:55:29;3.3;;;2.3;;
40012;SDS011;37387;42.672;23.334;2022-09-13T04:57:29;3.4;;;2.4;;
40012;SDS011;37387;42.672;23.334;2022-09-13T04:58:29;4.4;;;2.2;;
40012;SDS011;37387;42.672;23.334;2022-09-13T04:59:29;4.4;;;2.4;;
40012;SDS011;37387;42.672;23.334;2022-09-13T05:00:29;4.0;;;2.3;;
40012;SDS011;37387;42.672;23.334;2022-09-13T05:01:30;4.6;;;2.6;;
40012;SDS011;37387;42.672;23.334;2022-09-13T05:02:29;4.6;;;2.3;;
40012;SDS011;37387;42.672;23.334;2022-09-13T05:03:30;6.0;;;2.6;;
40012;SDS011;37387;42.672;23.334;2022-09-13T05:04:30;4.8;;;2.7;;
40012;SDS011;37387;42.672;23.334;2022-09-13T05:05:30;4.6;;;2.6;;
40012;SDS011;37387;42.672;23.334;2022-09-13T05:06:30;4.6;;;2.4;;
40012;SDS011;37387;42.672;23.334;2022-09-13T05:07:30;4.4;;;2.2;;
40012;SDS011;37387;42.672;23.334;2022-09-13T05:08:30;4.7;;;1.9;;
40012;SDS011;37387;42.672;23.334;2022-09-13T05:09:30;3.6;;;2.4;;
40012;SDS011;37387;42.672;23.334;2022-09-13T05:10:30;2.6;;;2.1;;
40012;SDS011;37387;42.672;23.334;2022-09-13T05:11:30;3.4;;;2.6;;
40012;SDS011;37387;42.672;23.334;2022-09-13T05:12:30;3.4;;;1.9;;
40012;SDS011;37387;42.672;23.334;2022-09-13T05:13:31;2.9;;;2.3;;
40012;SDS011;37387;42.672;23.334;2022-09-13T05:14:31;6.5;;;2.0;;
40012;SDS011;37387;42.672;23.334;2022-09-13T05:16:31;5.1;;;2.2;;
40012;SDS011;37387;42.672;23.334;2022-09-13T05:17:31;4.3;;;2.3;;
40012;SDS011;37387;42.672;23.334;2022-09-13T05:18:32;4.3;;;1.8;;
40012;SDS011;37387;42.672;23.334;2022-09-13T05:19:31;3.0;;;2.0;;
40012;SDS011;37387;42.672;23.334;2022-09-13T05:20:31;3.0;;;2.3;;
40012;SDS011;37387;42.672;23.334;2022-09-13T05:21:32;4.0;;;1.8;;
40012;SDS011;37387;42.672;23.334;2022-09-13T05:22:32;3.2;;;2.1;;
40012;SDS011;37387;42.672;23.334;2022-09-13T05:23:32;3.8;;;2.3;;
40012;SDS011;37387;42.672;23.334;2022-09-13T05:24:32;4.0;;;2.5;;
40012;SDS011;37387;42.672;23.334;2022-09-13T05:25:32;2.8;;;2.2;;
40012;SDS011;37387;42.672;23.334;2022-09-13T05:26:32;2.8;;;2.1;;
40012;SDS011;37387;42.672;23.334;2022-09-13T05:27:32;5.0;;;2.0;;
40012;SDS011;37387;42.672;23.334;2022-09-13T05:28:33;5.0;;;2.1;;
40012;SDS011;37387;42.672;23.334;2022-09-13T05:29:32;2.9;;;1.9;;
40012;SDS011;37387;42.672;23.334;2022-09-13T05:31:33;3.2;;;2.1;;
40012;SDS011;37387;42.672;23.334;2022-09-13T05:32:33;2.3;;;1.8;;
40012;SDS011;37387;42.672;23.334;2022-09-13T05:33:34;2.3;;;1.7;;
40012;SDS011;37387;42.672;23.334;2022-09-13T05:34:33;2.6;;;1.8;;
40012;SDS011;37387;42.672;23.334;2022-09-13T05:35:33;2.6;;;1.9;;
40012;SDS011;37387;42.672;23.334;2022-09-13T05:36:33;2.6;;;1.5;;
40012;SDS011;37387;42.672;23.334;2022-09-13T05:37:33;4.2;;;1.9;;
40012;SDS011;37387;42.672;23.334;2022-09-13T05:38:33;3.2;;;1.7;;
40012;SDS011;37387;42.672;23.334;2022-09-13T05:41:34;2.6;;;1.6;;
40012;SDS011;37387;42.672;23.334;2022-09-13T05:42:34;3.5;;;2.0;;
40012;SDS011;37387;42.672;23.334;2022-09-13T05:43:34;3.6;;;1.9;;
40012;SDS011;37387;42.672;23.334;2022-09-13T05:44:34;2.1;;;1.6;;
40012;SDS011;37387;42.672;23.334;2022-09-13T05:45:34;2.1;;;1.5;;
40012;SDS011;37387;42.672;23.334;2022-09-13T05:46:34;2.2;;;1.7;;
40012;SDS011;37387;42.672;23.334;2022-09-13T05:47:34;3.4;;;1.6;;
40012;SDS011;37387;42.672;23.334;2022-09-13T05:48:35;2.3;;;1.8;;
40012;SDS011;37387;42.672;23.334;2022-09-13T05:51:35;2.1;;;1.7;;
40012;SDS011;37387;42.672;23.334;2022-09-13T05:52:35;3.1;;;1.9;;
40012;SDS011;37387;42.672;23.334;2022-09-13T05:53:35;3.1;;;1.8;;
40012;SDS011;37387;42.672;23.334;2022-09-13T05:54:35;3.4;;;2.0;;
40012;SDS011;37387;42.672;23.334;2022-09-13T05:56:35;3.1;;;1.9;;
40012;SDS011;37387;42.672;23.334;2022-09-13T05:57:35;4.6;;;2.0;;
40012;SDS011;37387;42.672;23.334;2022-09-13T05:59:35;2.4;;;1.9;;
40012;SDS011;37387;42.672;23.334;2022-09-13T06:00:35;2.4;;;1.6;;
40012;SDS011;37387;42.672;23.334;2022-09-13T06:01:36;2.4;;;2.4;;
40012;SDS011;37387;42.672;23.334;2022-09-13T06:02:36;2.7;;;1.9;;
40012;SDS011;37387;42.672;23.334;2022-09-13T06:03:36;2.7;;;1.6;;
40012;SDS011;37387;42.672;23.334;2022-09-13T06:04:36;2.3;;;1.8;;
40012;SDS011;37387;42.672;23.334;2022-09-13T06:05:36;3.0;;;1.6;;
40012;SDS011;37387;42.672;23.334;2022-09-13T06:06:36;3.0;;;1.8;;
40012;SDS011;37387;42.672;23.334;2022-09-13T06:07:38;2.9;;;2.1;;
40012;SDS011;37387;42.672;23.334;2022-09-13T06:08:36;1.7;;;1.5;;
40012;SDS011;37387;42.672;23.334;2022-09-13T06:09:36;2.5;;;1.7;;
40012;SDS011;37387;42.672;23.334;2022-09-13T06:10:36;4.2;;;1.5;;
40012;SDS011;37387;42.672;23.334;2022-09-13T06:14:37;2.0;;;1.6;;
40012;SDS011;37387;42.672;23.334;2022-09-13T06:15:37;2.2;;;1.8;;
40012;SDS011;37387;42.672;23.334;2022-09-13T06:17:37;3.7;;;2.1;;
40012;SDS011;37387;42.672;23.334;2022-09-13T06:19:37;2.7;;;1.8;;
40012;SDS011;37387;42.672;23.334;2022-09-13T06:20:37;3.9;;;2.0;;
40012;SDS011;37387;42.672;23.334;2022-09-13T06:21:37;3.9;;;1.5;;
40012;SDS011;37387;42.672;23.334;2022-09-13T06:22:38;3.8;;;2.2;;
40012;SDS011;37387;42.672;23.334;2022-09-13T06:23:38;4.0;;;1.5;;
40012;SDS011;37387;42.672;23.334;2022-09-13T06:24:38;6.0;;;1.8;;
40012;SDS011;37387;42.672;23.334;2022-09-13T06:26:38;3.5;;;2.1;;
40012;SDS011;37387;42.672;23.334;2022-09-13T06:28:39;3.6;;;1.7;;
40012;SDS011;37387;42.672;23.334;2022-09-13T06:29:39;4.9;;;2.0;;
40012;SDS011;37387;42.672;23.334;2022-09-13T06:31:39;3.2;;;2.1;;
40012;SDS011;37387;42.672;23.334;2022-09-13T06:32:39;3.2;;;1.7;;
40012;SDS011;37387;42.672;23.334;2022-09-13T06:33:40;3.4;;;1.6;;
40012;SDS011;37387;42.672;23.334;2022-09-13T06:34:40;2.4;;;1.7;;
40012;SDS011;37387;42.672;23.334;2022-09-13T06:35:40;2.8;;;1.4;;
40012;SDS011;37387;42.672;23.334;2022-09-13T06:36:40;2.8;;;2.0;;
40012;SDS011;37387;42.672;23.334;2022-09-13T06:37:40;3.3;;;1.8;;
40012;SDS011;37387;42.672;23.334;2022-09-13T06:39:40;2.1;;;1.6;;
40012;SDS011;37387;42.672;23.334;2022-09-13T06:40:40;2.1;;;1.8;;
40012;SDS011;37387;42.672;23.334;2022-09-13T06:41:41;3.6;;;2.1;;
40012;SDS011;37387;42.672;23.334;2022-09-13T06:42:41;2.0;;;1.6;;
40012;SDS011;37387;42.672;23.334;2022-09-13T06:43:41;4.5;;;1.9;;
40012;SDS011;37387;42.672;23.334;2022-09-13T06:44:41;4.5;;;1.7;;
40012;SDS011;37387;42.672;23.334;2022-09-13T06:45:41;2.6;;;1.9;;
40012;SDS011;37387;42.672;23.334;2022-09-13T06:46:41;2.7;;;1.8;;
40012;SDS011;37387;42.672;23.334;2022-09-13T06:47:41;3.8;;;1.7;;
40012;SDS011;37387;42.672;23.334;2022-09-13T06:48:43;3.7;;;1.8;;
40012;SDS011;37387;42.672;23.334;2022-09-13T06:49:42;2.5;;;1.7;;
40012;SDS011;37387;42.672;23.334;2022-09-13T06:50:42;2.7;;;1.8;;
40012;SDS011;37387;42.672;23.334;2022-09-13T06:51:42;4.5;;;1.7;;
40012;SDS011;37387;42.672;23.334;2022-09-13T06:52:42;4.5;;;1.6;;
40012;SDS011;37387;42.672;23.334;2022-09-13T06:53:43;3.2;;;1.4;;
40012;SDS011;37387;42.672;23.334;2022-09-13T06:54:42;3.5;;;1.6;;
40012;SDS011;37387;42.672;23.334;2022-09-13T06:55:43;2.8;;;1.9;;
40012;SDS011;37387;42.672;23.334;2022-09-13T06:56:43;2.8;;;2.0;;
40012;SDS011;37387;42.672;23.334;2022-09-13T06:57:43;8.7;;;1.7;;
40012;SDS011;37387;42.672;23.334;2022-09-13T06:58:44;5.2;;;1.6;;
40012;SDS011;37387;42.672;23.334;2022-09-13T06:59:43;4.2;;;1.7;;
40012;SDS011;37387;42.672;23.334;2022-09-13T07:00:43;2.6;;;1.6;;
40012;SDS011;37387;42.672;23.334;2022-09-13T07:01:44;3.0;;;1.7;;
40012;SDS011;37387;42.672;23.334;2022-09-13T07:02:44;3.0;;;1.5;;
40012;SDS011;37387;42.672;23.334;2022-09-13T07:03:45;2.2;;;1.6;;
40012;SDS011;37387;42.672;23.334;2022-09-13T07:04:44;2.2;;;2.3;;
40012;SDS011;37387;42.672;23.334;2022-09-13T07:05:44;3.1;;;1.7;;
40012;SDS011;37387;42.672;23.334;2022-09-13T07:06:45;3.3;;;1.6;;